Ainsworth, Nebraska
Current Conditions -  °F | °C
As of 10:35 AM on Thursday 30 Oct 2014 (Local Time) from KANW Reporting Station
Clear Clear  
Wind Chill:   Ceiling: Unl
Heat Index:   Visibility: 10mi
Dew Point:   Wind: 23mph
Humidity: 61%   Direction: 330°NNW
Pressure: 30.23"   Gusts: 28mph
Location:  42.55°N, 99.86°W
Report Text: KANW 301535Z AUTO 33020G24KT 10SM CLR 09/02 A3023 RMK AO2 T00920020
Loading
Personal Weather Stations






























Interactive Weather Map New forecast layout! Learn more

10-Day Weather Forecast

Advertisements
Track Severe Weather on mobile